Time;durP1;ratioP1;P1;durP2;ratioP2;P2;SDS_P1;SDS_P2;PMS_P1;PMS_P2;Temp;Humidity;BMP_temperature;BMP_pressure;BME280_temperature;BME280_humidity;BME280_pressure;Samples;Min_cycle;Max_cycle;Signal;HPM_P1;HPM_P2
2022/06/13 00:01:01;;;;;;;;;;;25.30;97.10;;;;;;5007099;28;20093;-52
2022/06/13 00:03:27;;;;;;;;;;;25.30;97.10;;;;;;5006499;28;19906;-56
2022/06/13 00:05:53;;;;;;;;;;;25.20;97.10;;;;;;5007485;28;19929;-56
2022/06/13 00:08:19;;;;;;;;;;;25.20;97.00;;;;;;5005706;28;20066;-53
2022/06/13 00:10:45;;;;;;;;;;;25.20;96.80;;;;;;5007291;28;19913;-57
2022/06/13 00:13:11;;;;;;;;;;;25.20;96.80;;;;;;5004847;28;24081;-55
2022/06/13 00:15:37;;;;;;;;;;;25.10;96.80;;;;;;4998494;28;19906;-55
2022/06/13 00:18:03;;;;;;;;;;;25.10;96.90;;;;;;4988036;28;24059;-52
2022/06/13 00:20:30;;;;;;;;;;;25.10;97.10;;;;;;5006940;28;19909;-54
2022/06/13 00:22:56;;;;;;;;;;;25.10;97.00;;;;;;5006744;28;24078;-53
2022/06/13 00:25:22;;;;;;;;;;;25.00;96.90;;;;;;5005809;28;19946;-52
2022/06/13 00:27:48;;;;;;;5.20;1.60;;;25.10;96.90;;;;;;5006519;28;24052;-53
2022/06/13 00:30:15;;;;;;;5.35;1.83;;;25.10;96.80;;;;;;5005986;28;20126;-52
2022/06/13 00:32:42;;;;;;;8.23;2.10;;;25.10;96.90;;;;;;5005301;28;20266;-55
2022/06/13 00:35:09;;;;;;;5.63;1.90;;;25.10;96.90;;;;;;4997536;28;20038;-51
2022/06/13 00:37:36;;;;;;;10.30;1.70;;;25.10;96.90;;;;;;4999423;28;20310;-53
2022/06/13 00:40:03;;;;;;;7.63;1.50;;;25.10;96.80;;;;;;5005296;28;20030;-53
2022/06/13 00:42:29;;;;;;;6.60;1.55;;;25.10;96.90;;;;;;5000666;28;20026;-53
2022/06/13 00:45:08;;;;;;;;;;;25.10;96.90;;;;;;4995525;28;19913;-56
2022/06/13 00:47:34;;;;;;;;;;;25.10;96.90;;;;;;5005596;28;24095;-53
2022/06/13 00:50:01;;;;;;;;;;;25.10;97.10;;;;;;5005907;28;19914;-53
2022/06/13 00:52:29;;;;;;;;;;;25.10;97.10;;;;;;5005907;28;19929;-56
2022/06/13 00:54:56;;;;;;;;;;;25.10;97.20;;;;;;5004043;28;20244;-53
2022/06/13 00:57:27;;;;;;;;;;;25.10;97.10;;;;;;4998444;28;24066;-52
2022/06/13 00:59:54;;;;;;;;;;;25.10;97.10;;;;;;4990063;28;19993;-57
2022/06/13 01:02:21;;;;;;;;;;;25.10;96.90;;;;;;4986452;28;19929;-54
2022/06/13 01:04:48;;;;;;;;;;;24.90;97.10;;;;;;5000950;28;19913;-56
2022/06/13 01:07:15;;;;;;;;;;;24.90;97.10;;;;;;4991155;28;19997;-54
2022/06/13 01:12:28;;;;;;;6.78;1.52;;;24.80;97.20;;;;;;5005902;28;20078;-53
2022/06/13 01:15:04;;;;;;;8.80;1.50;;;24.80;97.40;;;;;;5001028;28;20022;-54
2022/06/13 01:17:44;;;;;;;4.75;1.30;;;24.80;97.40;;;;;;5003603;28;20037;-52
2022/06/13 01:20:29;;;;;;;5.03;1.40;;;24.90;97.30;;;;;;5000446;28;20057;-54
2022/06/13 01:23:46;;;;;;;4.15;1.27;;;24.90;97.40;;;;;;4986679;28;20018;-54
2022/06/13 01:26:19;;;;;;;5.35;1.27;;;24.80;97.30;;;;;;4980103;28;20030;-52
2022/06/13 01:29:07;;;;;;;7.20;1.20;;;24.80;97.40;;;;;;5002180;28;20045;-54
2022/06/13 01:32:00;;;;;;;5.28;1.00;;;24.80;97.30;;;;;;4998955;28;20062;-55
2022/06/13 01:34:51;;;;;;;5.68;1.08;;;24.90;97.40;;;;;;4997487;28;20306;-53
2022/06/13 01:37:42;;;;;;;6.93;1.23;;;24.90;97.20;;;;;;4998426;28;20073;-54
2022/06/13 01:40:37;;;;;;;8.85;1.00;;;24.80;97.30;;;;;;5003306;28;20030;-54
2022/06/13 01:43:25;;;;;;;6.28;1.15;;;24.90;97.30;;;;;;5004713;28;20029;-49
2022/06/13 01:46:14;;;;;;;6.03;1.30;;;24.80;97.40;;;;;;5004597;28;20026;-56
2022/06/13 01:49:16;;;;;;;7.88;1.50;;;24.90;97.50;;;;;;5004560;28;20025;-53
2022/06/13 01:52:05;;;;;;;5.73;1.13;;;24.80;97.60;;;;;;4981850;28;20034;-57
2022/06/13 01:54:38;;;;;;;6.88;1.17;;;24.80;97.60;;;;;;4999296;28;20066;-54
2022/06/13 01:57:19;;;;;;;3.60;1.13;;;24.80;97.60;;;;;;5003046;28;20336;-56
2022/06/13 01:59:55;;;;;;;5.13;2.50;;;24.80;97.70;;;;;;4991697;28;20295;-51
2022/06/13 02:02:38;;;;;;;19.63;7.70;;;24.80;97.50;;;;;;4994667;28;20076;-52
2022/06/13 02:05:31;;;;;;;22.25;18.63;;;24.90;97.40;;;;;;4985461;28;20018;-52
2022/06/13 02:08:05;;;;;;;19.23;16.35;;;24.90;97.30;;;;;;4984705;28;20109;-52
2022/06/13 02:10:37;;;;;;;16.25;12.07;;;25.00;97.30;;;;;;4993497;28;20041;-52
2022/06/13 02:13:13;;;;;;;15.32;12.45;;;25.00;97.20;;;;;;4985628;28;20030;-53
2022/06/13 02:15:54;;;;;;;17.75;15.60;;;25.10;97.20;;;;;;5004870;28;20076;-51
2022/06/13 02:18:28;;;;;;;24.13;21.73;;;25.10;97.10;;;;;;5003723;28;20032;-52
2022/06/13 02:21:03;;;;;;;29.67;26.60;;;25.10;97.10;;;;;;4996239;28;20072;-50
2022/06/13 02:23:33;;;;;;;23.40;21.15;;;25.10;97.10;;;;;;4999961;28;20203;-46
2022/06/13 02:26:13;;;;;;;17.83;16.02;;;25.10;97.10;;;;;;4995790;28;20014;-49
2022/06/13 02:28:47;;;;;;;19.15;15.23;;;25.10;97.10;;;;;;5000650;28;20026;-50
2022/06/13 02:31:21;;;;;;;13.50;11.98;;;25.10;97.00;;;;;;4989515;28;20069;-52
2022/06/13 02:33:53;;;;;;;14.55;10.27;;;25.10;97.00;;;;;;4999457;28;20026;-54
2022/06/13 02:36:26;;;;;;;10.90;8.10;;;25.10;97.00;;;;;;5003361;28;20068;-49
2022/06/13 02:39:11;;;;;;;9.93;6.18;;;25.10;97.00;;;;;;5003970;28;20322;-49
2022/06/13 02:42:07;;;;;;;7.13;5.57;;;25.20;97.00;;;;;;5004308;28;20258;-51
2022/06/13 02:44:51;;;;;;;9.52;4.68;;;25.20;97.00;;;;;;5004264;28;20023;-52
2022/06/13 02:47:44;;;;;;;7.70;3.25;;;25.20;96.90;;;;;;5004233;28;20022;-47
2022/06/13 02:50:46;;;;;;;5.22;2.58;;;25.10;96.90;;;;;;5001214;28;20034;-48
2022/06/13 02:53:27;;;;;;;8.48;2.30;;;25.20;97.00;;;;;;4974323;28;20231;-47
2022/06/13 02:56:18;;;;;;;5.85;1.90;;;25.20;96.90;;;;;;5004673;28;20089;-50
2022/06/13 02:59:06;;;;;;;7.25;2.00;;;25.20;97.00;;;;;;5004149;28;20022;-48
2022/06/13 03:01:40;;;;;;;5.70;1.58;;;25.10;96.90;;;;;;5004091;28;20030;-47
2022/06/13 03:04:28;;;;;;;6.30;1.60;;;25.10;96.90;;;;;;5004068;28;20314;-48
2022/06/13 03:07:04;;;;;;;9.18;1.25;;;25.10;96.90;;;;;;5003247;28;20155;-47
2022/06/13 03:09:54;;;;;;;5.45;1.30;;;25.10;97.20;;;;;;5003998;28;20045;-47
2022/06/13 03:12:29;;;;;;;3.88;1.10;;;25.20;97.00;;;;;;5003879;28;20038;-47
2022/06/13 03:15:01;;;;;;;3.35;1.23;;;25.10;97.00;;;;;;5004086;28;20042;-49
2022/06/13 03:17:33;;;;;;;;;;;25.20;97.00;;;;;;5004429;28;20029;-47
2022/06/13 03:20:10;;;;;;;5.28;1.27;;;25.20;97.00;;;;;;5004158;28;19937;-49
2022/06/13 03:22:43;;;;;;;5.90;1.02;;;25.20;97.10;;;;;;5003887;28;20018;-47
2022/06/13 03:25:30;;;;;;;3.70;1.15;;;25.20;97.10;;;;;;5001489;28;20065;-52
2022/06/13 03:28:17;;;;;;;5.10;1.10;;;25.20;97.10;;;;;;4992987;28;20314;-51
2022/06/13 03:30:49;;;;;;;4.82;0.82;;;25.20;97.10;;;;;;4963726;28;20097;-48
2022/06/13 03:36:08;;;;;;;8.35;1.20;;;25.10;97.10;;;;;;4994116;28;20025;-47
2022/06/13 03:38:43;;;;;;;7.68;1.38;;;25.20;97.10;;;;;;4992574;28;20036;-47
2022/06/13 03:41:16;;;;;;;3.17;0.73;;;25.20;97.10;;;;;;4993239;28;20298;-47
2022/06/13 03:43:58;;;;;;;6.30;1.05;;;25.20;97.10;;;;;;4990560;28;20026;-46
2022/06/13 03:46:33;;;;;;;10.27;1.33;;;25.20;97.10;;;;;;4987809;28;20027;-49
2022/06/13 03:49:14;;;;;;;5.43;1.00;;;25.20;97.10;;;;;;4987650;28;20214;-53
2022/06/13 03:51:52;;;;;;;5.90;0.95;;;25.20;97.10;;;;;;4987294;28;20038;-49
2022/06/13 03:54:32;;;;;;;7.10;0.90;;;25.20;97.10;;;;;;4987680;28;20320;-46
2022/06/13 03:57:08;;;;;;;6.18;0.90;;;25.20;97.10;;;;;;4987752;28;20023;-50
2022/06/13 03:59:54;;;;;;;4.93;1.13;;;25.20;97.10;;;;;;4987684;28;20310;-51
2022/06/13 04:02:31;;;;;;;5.53;1.00;;;25.20;97.10;;;;;;4987392;28;20314;-53
2022/06/13 04:04:58;;;;;;;5.28;0.90;;;25.20;97.10;;;;;;4987453;28;20049;-46
2022/06/13 04:07:28;;;;;;;;;;;25.20;97.10;;;;;;4988837;28;20028;-54
2022/06/13 04:10:10;;;;;;;;;;;25.20;97.10;;;;;;4997024;28;20279;-55
2022/06/13 04:12:36;;;;;;;;;;;25.20;97.10;;;;;;4987695;28;20323;-54
2022/06/13 04:15:21;;;;;;;;;;;25.20;97.10;;;;;;4987789;28;19906;-51
2022/06/13 04:17:56;;;;;;;;;;;25.20;97.10;;;;;;4987655;28;24091;-54
2022/06/13 04:20:23;;;;;;;;;;;25.10;97.10;;;;;;4990235;28;24084;-50
2022/06/13 04:22:58;;;;;;;;;;;25.20;97.10;;;;;;5006718;28;19906;-47
2022/06/13 04:25:24;;;;;;;;;;;25.20;97.10;;;;;;5007190;28;19906;-49
2022/06/13 04:27:55;;;;;;;;;;;25.20;97.20;;;;;;5006839;28;24063;-47
2022/06/13 04:30:24;;;;;;;;;;;25.20;97.10;;;;;;5006627;28;19914;-47
2022/06/13 04:32:53;;;;;;;;;;;25.20;97.10;;;;;;4999284;28;19914;-46
2022/06/13 04:35:19;;;;;;;;;;;25.20;97.10;;;;;;4987160;28;24075;-47
2022/06/13 04:37:47;;;;;;;;;;;25.20;97.10;;;;;;4985944;28;19949;-52
2022/06/13 04:40:17;;;;;;;;;;;25.20;97.10;;;;;;4986391;28;19910;-56
2022/06/13 04:42:45;;;;;;;;;;;25.20;97.10;;;;;;4991639;28;19916;-47
2022/06/13 04:45:31;;;;;;;;;;;25.20;97.00;;;;;;4987209;28;19913;-51
2022/06/13 04:47:57;;;;;;;;;;;25.20;97.00;;;;;;4987247;28;20366;-45
2022/06/13 04:50:30;;;;;;;;;;;25.20;97.10;;;;;;4987203;28;24087;-46
2022/06/13 04:52:57;;;;;;;;;;;25.20;97.10;;;;;;4986751;28;19949;-48
2022/06/13 04:55:26;;;;;;;;;;;25.20;97.00;;;;;;4986915;28;20025;-52
2022/06/13 04:57:52;;;;;;;;;;;25.20;97.00;;;;;;4986737;28;19928;-51
2022/06/13 05:00:19;;;;;;;;;;;25.20;97.00;;;;;;4986720;28;19914;-53
2022/06/13 05:02:47;;;;;;;;;;;25.20;97.10;;;;;;4986578;28;19906;-51
2022/06/13 05:05:31;;;;;;;;;;;25.20;97.10;;;;;;4986677;28;19906;-46
2022/06/13 05:07:58;;;;;;;;;;;25.20;97.20;;;;;;4986619;28;24073;-46
2022/06/13 05:10:32;;;;;;;;;;;25.20;97.30;;;;;;4986781;28;19907;-49
2022/06/13 05:12:58;;;;;;;;;;;25.20;97.30;;;;;;4986265;28;20130;-48
2022/06/13 05:15:29;;;;;;;;;;;25.20;97.20;;;;;;4986424;28;19945;-46
2022/06/13 05:17:58;;;;;;;;;;;25.20;97.20;;;;;;4993489;28;19910;-48
2022/06/13 05:20:24;;;;;;;;;;;25.20;97.20;;;;;;4986523;28;19917;-54
2022/06/13 05:22:56;;;;;;;;;;;25.10;97.20;;;;;;4986264;28;19914;-55
2022/06/13 05:25:43;;;;;;;;;;;25.20;97.20;;;;;;4986440;28;19906;-49
2022/06/13 05:28:10;;;;;;;;;;;25.20;97.20;;;;;;4986080;28;20194;-46
2022/06/13 05:30:39;;;;;;;;;;;25.20;97.20;;;;;;4986168;28;19993;-49
2022/06/13 05:33:05;;;;;;;;;;;25.20;97.20;;;;;;4986271;28;19969;-51
2022/06/13 05:35:32;;;;;;;;;;;25.20;97.30;;;;;;4986319;28;19910;-46
2022/06/13 05:38:01;;;;;;;;;;;25.20;97.30;;;;;;4994569;28;19948;-52
2022/06/13 05:40:28;;;;;;;;;;;25.20;97.30;;;;;;5000833;28;19922;-50
2022/06/13 05:42:54;;;;;;;;;;;25.20;97.30;;;;;;4986070;28;25092;-54
2022/06/13 05:45:24;;;;;;;;;;;25.20;97.20;;;;;;4986132;28;19910;-51
2022/06/13 05:47:52;;;;;;;;;;;25.20;97.20;;;;;;4985754;28;24083;-51
2022/06/13 05:50:20;;;;;;;;;;;25.20;97.20;;;;;;4985700;28;19910;-44
2022/06/13 05:52:46;;;;;;;;;;;25.10;97.20;;;;;;4985971;28;19902;-48
2022/06/13 05:55:13;;;;;;;;;;;25.10;97.20;;;;;;4986148;28;24115;-52
2022/06/13 05:57:39;;;;;;;;;;;25.20;97.20;;;;;;4985698;28;19902;-46
2022/06/13 06:00:10;;;;;;;;;;;25.10;97.20;;;;;;4985714;28;19913;-47
2022/06/13 06:02:36;;;;;;;;;;;25.10;97.20;;;;;;4985774;28;19988;-44
2022/06/13 06:05:02;;;;;;;;;;;25.20;97.20;;;;;;4985788;28;19910;-52
2022/06/13 06:07:29;;;;;;;;;;;25.20;97.20;;;;;;4985019;28;20067;-52
2022/06/13 06:09:55;;;;;;;;;;;25.10;97.20;;;;;;4985614;28;19925;-53
2022/06/13 06:12:21;;;;;;;;;;;25.10;97.20;;;;;;4985292;28;24102;-50
2022/06/13 06:14:48;;;;;;;;;;;25.10;97.20;;;;;;4985656;28;20071;-47
2022/06/13 06:17:14;;;;;;;;;;;25.10;97.10;;;;;;4985506;28;24194;-44
2022/06/13 06:19:40;;;;;;;;;;;25.10;97.10;;;;;;4985295;28;19921;-44
2022/06/13 06:22:06;;;;;;;;;;;25.10;97.10;;;;;;4985322;28;19924;-47
2022/06/13 06:24:32;;;;;;;;;;;25.10;97.20;;;;;;4985224;28;24096;-50
2022/06/13 06:26:58;;;;;;;;;;;25.10;97.20;;;;;;4985501;28;19902;-52
2022/06/13 06:29:25;;;;;;;6.30;0.90;;;25.10;97.20;;;;;;4985298;28;19910;-54
2022/06/13 06:31:51;;;;;;;5.30;0.90;;;25.10;97.20;;;;;;4984718;28;20043;-46
2022/06/13 06:34:18;;;;;;;6.80;1.00;;;25.10;97.20;;;;;;4985165;28;20333;-52
2022/06/13 06:36:44;;;;;;;;;;;25.10;97.30;;;;;;4985220;28;20041;-49
2022/06/13 06:39:10;;;;;;;;;;;25.10;97.30;;;;;;4985142;28;19902;-50
2022/06/13 06:41:36;;;;;;;;;;;25.10;97.30;;;;;;4985141;28;19913;-50
2022/06/13 06:44:03;;;;;;;;;;;25.10;97.30;;;;;;4985063;28;19925;-53
2022/06/13 06:46:29;;;;;;;;;;;25.10;97.30;;;;;;4984831;28;24062;-45
2022/06/13 06:48:55;;;;;;;;;;;25.10;97.30;;;;;;4985287;28;19925;-46
2022/06/13 06:51:21;;;;;;;;;;;25.10;97.30;;;;;;4985034;28;20334;-54
2022/06/13 07:02:00;;;;;;;;;;;25.10;97.10;;;;;;4984867;28;20010;-51
2022/06/13 07:04:27;;;;;;;;;;;25.10;97.10;;;;;;4984902;28;19934;-52
2022/06/13 07:06:53;;;;;;;;;;;25.10;97.00;;;;;;4984671;28;19913;-51
2022/06/13 07:09:19;;;;;;;;;;;25.10;97.00;;;;;;4985057;28;20245;-45
2022/06/13 07:11:54;;;;;;;;;;;25.10;97.00;;;;;;4984716;28;24113;-50
2022/06/13 07:14:25;;;;;;;;;;;25.10;96.90;;;;;;4984704;28;24077;-49
2022/06/13 07:16:52;;;;;;;;;;;25.00;96.90;;;;;;4984799;28;24074;-50
2022/06/13 07:19:18;;;;;;;;;;;25.00;96.90;;;;;;4987122;28;19910;-52
2022/06/13 07:21:44;;;;;;;;;;;25.10;97.00;;;;;;4988445;28;20135;-46
2022/06/13 07:24:11;;;;;;;;;;;25.00;96.90;;;;;;4988297;28;24066;-53
2022/06/13 07:26:37;;;;;;;;;;;25.00;96.80;;;;;;4988098;28;19906;-48
2022/06/13 07:29:04;;;;;;;;;;;25.00;96.80;;;;;;4988505;28;24102;-50
2022/06/13 07:31:37;;;;;;;;;;;25.10;96.80;;;;;;4988465;28;19914;-48
2022/06/13 07:34:03;;;;;;;;;;;25.00;96.80;;;;;;4988159;28;24101;-49
2022/06/13 07:36:29;;;;;;;;;;;25.00;96.70;;;;;;4988328;28;20132;-50
2022/06/13 07:38:55;;;;;;;;;;;25.00;96.70;;;;;;4988368;28;19902;-49
2022/06/13 07:41:23;;;;;;;;;;;25.00;96.70;;;;;;4987921;28;20012;-51
2022/06/13 07:43:51;;;;;;;;;;;25.00;96.70;;;;;;4988222;28;19902;-54
2022/06/13 07:46:24;;;;;;;;;;;25.00;96.60;;;;;;4988583;28;20232;-53
2022/06/13 07:48:50;;;;;;;;;;;25.00;96.70;;;;;;4988211;28;19954;-49
2022/06/13 07:51:18;;;;;;;;;;;25.00;96.60;;;;;;4988429;28;19913;-46
2022/06/13 07:53:44;;;;;;;;;;;24.90;96.60;;;;;;4987868;28;19906;-50
2022/06/13 07:56:13;;;;;;;;;;;24.90;96.70;;;;;;4988344;28;24093;-50
2022/06/13 07:58:41;;;;;;;;;;;24.90;96.60;;;;;;4987915;28;24076;-46
2022/06/13 08:01:07;;;;;;;;;;;24.90;96.60;;;;;;4987513;28;24086;-47
2022/06/13 08:03:34;;;;;;;;;;;24.90;96.60;;;;;;4987439;28;19906;-50
2022/06/13 08:06:00;;;;;;;;;;;24.90;96.60;;;;;;4987862;28;24064;-48
2022/06/13 08:08:27;;;;;;;;;;;24.90;96.60;;;;;;4987575;28;19930;-51
2022/06/13 08:10:54;;;;;;;;;;;24.90;96.50;;;;;;4987427;28;24089;-49
2022/06/13 08:13:21;;;;;;;;;;;24.90;96.50;;;;;;4987647;28;19973;-49
2022/06/13 08:15:47;;;;;;;;;;;24.90;96.50;;;;;;4987254;28;20078;-53
2022/06/13 08:18:14;;;;;;;;;;;24.90;96.50;;;;;;4987330;28;19913;-52
2022/06/13 08:20:41;;;;;;;;;;;24.90;96.50;;;;;;4987069;28;19910;-52
2022/06/13 08:23:08;;;;;;;;;;;24.90;96.50;;;;;;4987229;28;24063;-53
2022/06/13 08:25:36;;;;;;;;;;;24.90;96.50;;;;;;4987139;28;20022;-49
2022/06/13 08:28:03;;;;;;;;;;;24.90;96.50;;;;;;4987122;28;19973;-50
2022/06/13 08:30:35;;;;;;;;;;;24.90;96.50;;;;;;4986786;28;19918;-52
2022/06/13 08:33:01;;;;;;;;;;;24.90;96.50;;;;;;4986570;28;24064;-51
2022/06/13 08:35:27;;;;;;;;;;;24.80;96.50;;;;;;4987644;28;19977;-50
2022/06/13 08:37:53;;;;;;;;;;;24.90;96.50;;;;;;4986700;28;20151;-50
2022/06/13 08:40:20;;;;;;;;;;;24.80;96.50;;;;;;4987009;28;19914;-54
2022/06/13 08:42:52;;;;;;;;;;;24.90;96.50;;;;;;4986701;28;19908;-53
2022/06/13 08:45:38;;;;;;;;;;;24.90;96.50;;;;;;4987184;28;19910;-55
2022/06/13 08:48:04;;;;;;;;;;;24.80;96.50;;;;;;4986549;28;24091;-51
2022/06/13 08:50:45;;;;;;;;;;;24.80;96.50;;;;;;4986896;28;25106;-53
2022/06/13 08:53:24;;;;;;;;;;;24.80;96.50;;;;;;4986840;28;20205;-55
2022/06/13 08:56:11;;;;;;;;;;;24.80;96.50;;;;;;4986779;28;20130;-51
2022/06/13 08:58:57;;;;;;;;;;;24.80;96.50;;;;;;4986102;28;19924;-51
2022/06/13 09:01:24;;;;;;;;;;;24.80;96.50;;;;;;4986296;28;19921;-54
2022/06/13 09:03:50;;;;;;;;;;;24.80;96.60;;;;;;4986577;28;24097;-49
2022/06/13 09:06:22;;;;;;;;;;;24.80;96.60;;;;;;4986574;28;20178;-51
2022/06/13 09:08:59;;;;;;;;;;;24.80;96.60;;;;;;4986106;28;24066;-51
2022/06/13 09:11:37;;;;;;;;;;;24.80;96.50;;;;;;4986283;28;19910;-51
2022/06/13 09:14:12;;;;;;;;;;;24.80;96.50;;;;;;4985978;28;24078;-48
2022/06/13 09:16:40;;;;;;;;;;;24.80;96.50;;;;;;4986157;28;24101;-49
2022/06/13 09:19:20;;;;;;;;;;;24.80;96.50;;;;;;4985731;28;19902;-47
2022/06/13 09:21:53;;;;;;;;;;;24.80;96.50;;;;;;4985695;28;19906;-53
2022/06/13 09:24:27;;;;;;;;;;;24.80;96.50;;;;;;4986393;28;19985;-52
2022/06/13 09:27:04;;;;;;;;;;;24.70;96.50;;;;;;4985787;28;19905;-50
2022/06/13 09:29:33;;;;;;;;;;;24.70;96.50;;;;;;4985848;28;19910;-47
2022/06/13 09:32:05;;;;;;;;;;;24.80;96.60;;;;;;4985445;28;19925;-51
2022/06/13 09:34:40;;;;;;;;;;;24.70;96.60;;;;;;4985781;28;19933;-54
2022/06/13 09:37:30;;;;;;;;;;;24.80;96.60;;;;;;4985455;28;19902;-52
2022/06/13 09:39:56;;;;;;;;;;;24.70;96.50;;;;;;4980281;28;19957;-56
2022/06/13 09:42:46;;;;;;;;;;;24.70;96.50;;;;;;4984663;28;19933;-55
2022/06/13 09:45:18;;;;;;;;;;;24.80;96.60;;;;;;4980801;28;19932;-55
2022/06/13 09:47:50;;;;;;;;;;;24.70;96.50;;;;;;4985978;28;24068;-53
2022/06/13 09:50:19;;;;;;;;;;;24.70;96.50;;;;;;4985537;28;24147;-53
2022/06/13 09:52:56;;;;;;;;;;;24.70;96.50;;;;;;4985288;28;19902;-55
2022/06/13 09:55:31;;;;;;;;;;;24.70;96.50;;;;;;4985768;28;24062;-50
2022/06/13 09:58:05;;;;;;;;;;;24.70;96.50;;;;;;4985688;28;20182;-47
2022/06/13 10:00:34;;;;;;;;;;;24.80;96.60;;;;;;4985475;28;19920;-52
2022/06/13 10:03:15;;;;;;;;;;;24.80;96.60;;;;;;4985477;28;19902;-49
2022/06/13 10:05:52;;;;;;;;;;;24.80;96.60;;;;;;4985526;28;24054;-50
2022/06/13 10:08:31;;;;;;;;;;;24.70;96.50;;;;;;4985263;28;24086;-52
2022/06/13 10:11:17;;;;;;;;;;;24.70;96.50;;;;;;4985676;28;20094;-46
2022/06/13 10:13:46;;;;;;;;;;;24.70;96.50;;;;;;4985604;28;19909;-54
2022/06/13 10:16:32;;;;;;;;;;;24.70;96.60;;;;;;4985471;28;19914;-51
2022/06/13 10:19:11;;;;;;;;;;;24.70;96.60;;;;;;4964819;28;19944;-53
2022/06/13 10:21:44;;;;;;;;;;;24.70;96.60;;;;;;4985044;28;19973;-47
2022/06/13 10:24:23;;;;;;;;;;;24.70;96.60;;;;;;4985180;28;24069;-48
2022/06/13 10:26:49;;;;;;;;;;;24.70;96.60;;;;;;4984860;28;19909;-49
2022/06/13 10:29:21;;;;;;;;;;;24.70;96.60;;;;;;4984933;28;19910;-51
2022/06/13 10:31:57;;;;;;;;;;;24.70;96.60;;;;;;4985066;28;19921;-45
2022/06/13 10:34:29;;;;;;;;;;;24.70;96.70;;;;;;4985230;28;20229;-50
2022/06/13 10:37:13;;;;;;;;;;;24.70;96.70;;;;;;4985070;28;24082;-52
2022/06/13 10:39:41;;;;;;;;;;;24.70;96.70;;;;;;4984927;28;19956;-53
2022/06/13 10:42:10;;;;;;;;;;;24.70;96.70;;;;;;4984820;28;19902;-52
2022/06/13 10:44:37;;;;;;;;;;;24.70;96.70;;;;;;4985108;28;24070;-52
2022/06/13 10:47:10;;;;;;;;;;;24.70;96.70;;;;;;4985086;28;24054;-55
2022/06/13 10:49:39;;;;;;;;;;;24.70;96.70;;;;;;4985205;28;19933;-51
2022/06/13 10:52:09;;;;;;;;;;;24.70;96.70;;;;;;4985126;28;20182;-54
2022/06/13 10:54:41;;;;;;;;;;;24.70;96.70;;;;;;4989232;28;19910;-47
2022/06/13 10:57:13;;;;;;;;;;;24.70;96.70;;;;;;4988840;28;20075;-46
2022/06/13 10:59:39;;;;;;;;;;;24.70;96.80;;;;;;4988641;28;19921;-46
2022/06/13 11:02:20;;;;;;;;;;;24.70;96.70;;;;;;4988813;28;19902;-50
2022/06/13 11:05:02;;;;;;;;;;;24.70;96.70;;;;;;4988840;28;19917;-51
2022/06/13 11:07:28;;;;;;;;;;;24.70;96.70;;;;;;4988490;28;24081;-48
2022/06/13 11:10:01;;;;;;;;;;;24.70;96.70;;;;;;4989004;28;19917;-58
2022/06/13 11:12:31;;;;;;;;;;;24.70;96.80;;;;;;4988195;28;19906;-49
2022/06/13 11:23:17;;;;;;;;;;;24.70;96.90;;;;;;4988471;28;19944;-49
2022/06/13 11:25:43;;;;;;;;;;;24.70;97.00;;;;;;4988614;28;24074;-51
2022/06/13 11:28:11;;;;;;;;;;;24.70;96.90;;;;;;4988378;28;19966;-53
2022/06/13 11:30:38;;;;;;;;;;;24.70;96.90;;;;;;4988321;28;19917;-46
2022/06/13 11:33:10;;;;;;;;;;;24.80;96.90;;;;;;4988262;28;19976;-49
2022/06/13 11:35:42;;;;;;;;;;;24.80;96.90;;;;;;4988506;28;24099;-53
2022/06/13 11:38:16;;;;;;;;;;;24.80;96.90;;;;;;4988205;28;24063;-48
2022/06/13 11:40:46;;;;;;;;;;;24.80;97.00;;;;;;4987633;28;24080;-49
2022/06/13 11:43:19;;;;;;;;;;;24.80;97.00;;;;;;4986469;28;19933;-49
2022/06/13 11:45:53;;;;;;;;;;;24.80;97.10;;;;;;4986696;28;20146;-51
2022/06/13 11:48:19;;;;;;;;;;;24.80;97.10;;;;;;4986483;28;19901;-47
2022/06/13 11:50:45;;;;;;;;;;;24.80;97.10;;;;;;4986405;28;24075;-49
2022/06/13 11:55:58;;;;;;;;;;;24.80;97.20;;;;;;4986768;28;20205;-53
2022/06/13 11:58:32;;;;;;;;;;;24.80;97.20;;;;;;4987886;28;19961;-51
2022/06/13 12:01:03;;;;;;;;;;;24.80;97.20;;;;;;4988328;28;19914;-53
2022/06/13 12:03:30;;;;;;;;;;;24.80;97.10;;;;;;4987849;28;24082;-48
2022/06/13 12:06:08;;;;;;;;;;;24.80;97.10;;;;;;4991525;28;24050;-49
2022/06/13 12:08:35;;;;;;;;;;;24.90;97.10;;;;;;5003627;28;19901;-43
2022/06/13 12:11:21;;;;;;;;;;;24.90;97.10;;;;;;5005987;28;19909;-58
2022/06/13 12:13:48;;;;;;;;;;;24.90;97.10;;;;;;4987305;28;24077;-49
2022/06/13 12:16:27;;;;;;;;;;;24.90;97.10;;;;;;4988386;28;19918;-49
2022/06/13 12:19:02;;;;;;;;;;;24.90;97.20;;;;;;4987514;28;20090;-49
2022/06/13 12:21:36;;;;;;;;;;;24.90;97.10;;;;;;4987775;28;19984;-53
2022/06/13 12:24:18;;;;;;;;;;;24.90;97.10;;;;;;4987523;28;24076;-47
2022/06/13 12:27:04;;;;;;;;;;;24.90;97.10;;;;;;4987325;28;24097;-46
2022/06/13 12:29:47;;;;;;;;;;;24.90;97.20;;;;;;4987936;28;24082;-50
2022/06/13 12:32:22;;;;;;;;;;;24.90;97.10;;;;;;4987520;28;20008;-51
2022/06/13 12:34:57;;;;;;;;;;;24.90;97.10;;;;;;4987311;28;24060;-51
2022/06/13 12:37:23;;;;;;;;;;;24.90;97.10;;;;;;4987227;28;19912;-47
2022/06/13 12:39:54;;;;;;;;;;;25.00;97.20;;;;;;4987665;28;19952;-47
2022/06/13 12:42:28;;;;;;;;;;;25.00;97.20;;;;;;4987360;28;24061;-47
2022/06/13 12:45:13;;;;;;;;;;;25.00;97.10;;;;;;4987461;28;19906;-50
2022/06/13 12:47:44;;;;;;;;;;;25.00;97.10;;;;;;4987074;28;19906;-47
2022/06/13 12:50:35;;;;;;;63.35;12.05;;;25.00;97.10;;;;;;4987105;28;24090;-54
2022/06/13 12:53:13;;;;;;;64.35;9.48;;;25.00;97.10;;;;;;4986754;28;20042;-48
2022/06/13 12:55:46;;;;;;;59.97;8.60;;;25.00;97.10;;;;;;4987089;28;20034;-47
2022/06/13 12:58:15;;;;;;;;;;;25.10;97.00;;;;;;4987071;28;20196;-46
2022/06/13 13:00:50;;;;;;;;;;;25.10;97.00;;;;;;4987790;28;19913;-52
2022/06/13 13:03:19;;;;;;;;;;;25.00;97.10;;;;;;4986774;28;24069;-46
2022/06/13 13:06:00;;;;;;;;;;;25.10;97.00;;;;;;4987153;28;19906;-51
2022/06/13 13:08:29;;;;;;;;;;;25.10;97.10;;;;;;4987292;28;19905;-53
2022/06/13 13:10:55;;;;;;;;;;;25.10;97.10;;;;;;4987023;28;24104;-53
2022/06/13 13:13:39;;;;;;;;;;;25.10;97.10;;;;;;4986381;28;19906;-46
2022/06/13 13:16:23;;;;;;;;;;;25.20;97.00;;;;;;4986938;28;19948;-49
2022/06/13 13:19:08;;;;;;;;;;;25.20;97.00;;;;;;4994463;28;24107;-47
2022/06/13 13:21:41;;;;;;;;;;;25.20;97.00;;;;;;4994186;28;19933;-50
2022/06/13 13:24:26;;;;;;;;;;;25.30;97.10;;;;;;4991613;28;19909;-50
2022/06/13 13:27:11;;;;;;;;;;;25.30;96.80;;;;;;4986499;28;24117;-46
2022/06/13 13:29:37;;;;;;;;;;;25.30;96.60;;;;;;4990769;28;19905;-44
2022/06/13 13:32:15;;;;;;;;;;;25.30;96.60;;;;;;5005984;28;19910;-57
2022/06/13 13:34:59;;;;;;;;;;;25.30;96.50;;;;;;5004069;28;24099;-52
2022/06/13 13:37:36;;;;;;;;;;;25.30;96.50;;;;;;5005317;28;24074;-47
2022/06/13 13:40:14;;;;;;;;;;;25.40;96.50;;;;;;5000101;28;19910;-53
2022/06/13 13:42:44;;;;;;;;;;;25.40;96.50;;;;;;5005313;28;24093;-52
2022/06/13 13:45:30;;;;;;;;;;;25.40;96.40;;;;;;4996757;28;19906;-52
2022/06/13 13:48:00;;;;;;;;;;;25.40;96.40;;;;;;4985911;28;24104;-46
2022/06/13 13:50:28;;;;;;;;;;;25.40;96.40;;;;;;4995933;28;24076;-54
2022/06/13 13:53:01;;;;;;;;;;;25.50;96.40;;;;;;5005023;28;20090;-52
2022/06/13 13:55:48;;;;;;;;;;;25.50;96.30;;;;;;5005797;28;24073;-46
2022/06/13 13:58:28;;;;;;;;;;;25.50;96.30;;;;;;4992509;28;24074;-46
2022/06/13 14:01:14;;;;;;;;;;;25.50;96.30;;;;;;4985641;28;19916;-48
2022/06/13 14:03:40;;;;;;;;;;;25.50;96.20;;;;;;4985259;28;24115;-47
2022/06/13 14:06:06;;;;;;;;;;;25.50;96.20;;;;;;4987106;28;19973;-49
2022/06/13 14:08:36;;;;;;;;;;;25.50;96.30;;;;;;4985556;28;19912;-52
2022/06/13 14:11:03;;;;;;;;;;;25.50;96.30;;;;;;4985953;28;19906;-48
2022/06/13 14:13:33;;;;;;;;;;;25.60;96.30;;;;;;4985470;28;24075;-51
2022/06/13 14:16:02;;;;;;;;;;;25.60;96.40;;;;;;4985394;28;19906;-50
2022/06/13 14:18:35;;;;;;;;;;;25.60;96.30;;;;;;4985374;28;24109;-48
2022/06/13 14:21:06;;;;;;;;;;;25.60;96.30;;;;;;4985492;28;19961;-49
2022/06/13 14:23:38;;;;;;;;;;;25.60;96.10;;;;;;4984981;28;24117;-53
2022/06/13 14:26:04;;;;;;;;;;;25.70;96.10;;;;;;4985272;28;19982;-47
2022/06/13 14:28:45;;;;;;;;;;;25.70;96.00;;;;;;4984521;28;19913;-53
2022/06/13 14:31:11;;;;;;;;;;;25.70;96.00;;;;;;4984778;28;24098;-46
2022/06/13 14:36:53;;;;;;;;;;;25.80;96.00;;;;;;4984710;28;19949;-48
2022/06/13 14:39:31;;;;;;;;;;;25.80;96.10;;;;;;4984503;28;19968;-50
2022/06/13 14:42:03;;;;;;;;;;;25.90;96.10;;;;;;4985279;28;25086;-50
2022/06/13 14:45:01;;;;;;;;;;;25.90;96.00;;;;;;4985180;28;19964;-48
2022/06/13 14:47:33;;;;;;;;;;;25.90;96.00;;;;;;4984835;28;19909;-50
2022/06/13 14:49:59;;;;;;;;;;;25.90;95.90;;;;;;4985452;28;19910;-47
2022/06/13 14:52:28;;;;;;;;;;;25.90;96.00;;;;;;4994410;28;24062;-51
2022/06/13 14:55:03;;;;;;;;;;;25.90;96.00;;;;;;4991177;28;25099;-49